createdAt,value
2023-02-02T00:05:04.251Z,30.50
2023-02-02T00:07:31.887Z,32.90
2023-02-02T00:09:59.463Z,32.20
2023-02-02T00:12:28.550Z,34.00
2023-02-02T00:14:55.978Z,28.55
2023-02-02T00:17:23.527Z,25.13
2023-02-02T00:19:51.128Z,28.33
2023-02-02T00:22:18.589Z,25.15
2023-02-02T00:24:46.503Z,36.78
2023-02-02T00:27:14.222Z,33.53
2023-02-02T00:29:41.856Z,23.20
2023-02-02T00:32:09.637Z,26.52
2023-02-02T00:34:37.338Z,36.45
2023-02-02T00:37:06.232Z,22.98
2023-02-02T00:39:34.666Z,38.03
2023-02-02T00:42:02.399Z,36.78
2023-02-02T00:44:48.416Z,24.67
2023-02-02T00:47:20.263Z,30.85
2023-02-02T00:49:47.923Z,28.42
2023-02-02T00:52:16.610Z,25.45
2023-02-02T00:54:46.154Z,23.98
2023-02-02T00:57:16.038Z,28.35
2023-02-02T00:59:44.278Z,25.70
2023-02-02T01:03:36.306Z,18.60
2023-02-02T01:06:03.860Z,18.48
2023-02-02T01:08:31.383Z,20.48
2023-02-02T01:11:00.262Z,22.50
2023-02-02T01:13:27.850Z,14.10
2023-02-02T01:15:57.123Z,17.95
2023-02-02T01:18:25.145Z,19.88
2023-02-02T01:21:00.428Z,18.83
2023-02-02T01:23:28.445Z,22.20
2023-02-02T01:25:56.948Z,28.30
2023-02-02T01:28:24.597Z,29.60
2023-02-02T01:30:52.908Z,34.55
2023-02-02T01:33:20.891Z,30.85
2023-02-02T01:36:08.958Z,32.60
2023-02-02T01:38:36.688Z,31.00
2023-02-02T01:41:04.668Z,21.85
2023-02-02T01:43:46.133Z,34.60
2023-02-02T01:46:14.286Z,26.05
2023-02-02T01:48:47.681Z,31.25
2023-02-02T01:51:18.888Z,33.95
2023-02-02T01:53:47.918Z,35.63
2023-02-02T01:56:18.596Z,35.63
2023-02-02T01:58:46.699Z,25.98
2023-02-02T02:01:15.389Z,27.23
2023-02-02T02:03:46.646Z,30.15
2023-02-02T02:06:16.657Z,28.20
2023-02-02T02:08:47.293Z,24.02
2023-02-02T02:11:15.816Z,18.92
2023-02-02T02:14:02.332Z,19.05
2023-02-02T02:16:48.736Z,20.85
2023-02-02T02:19:35.381Z,24.08
2023-02-02T02:22:38.061Z,19.08
2023-02-02T02:25:35.381Z,28.92
2023-02-02T02:28:24.102Z,13.60
2023-02-02T02:30:57.603Z,19.98
2023-02-02T02:33:42.373Z,16.05
2023-02-02T02:36:16.594Z,23.52
2023-02-02T02:39:03.637Z,19.60
2023-02-02T02:41:34.499Z,21.52
2023-02-02T02:44:05.354Z,20.30
2023-02-02T02:46:33.350Z,13.23
2023-02-02T02:49:02.234Z,17.00
2023-02-02T02:51:48.916Z,15.82
2023-02-02T02:54:39.825Z,23.48
2023-02-02T02:57:18.293Z,17.90
2023-02-02T02:59:53.649Z,20.25
2023-02-02T03:02:47.618Z,19.73
2023-02-02T03:05:18.215Z,20.48
2023-02-02T03:07:52.389Z,31.00
2023-02-02T03:10:21.594Z,32.65
2023-02-02T03:12:50.295Z,25.85
2023-02-02T03:15:18.545Z,19.65
2023-02-02T03:17:49.317Z,23.80
2023-02-02T03:20:17.953Z,39.97
2023-02-02T03:22:50.097Z,24.10
2023-02-02T03:25:19.347Z,31.13
2023-02-02T03:27:46.929Z,26.98
2023-02-02T03:30:15.426Z,33.72
2023-02-02T03:32:44.149Z,23.98
2023-02-02T03:35:11.615Z,32.92
2023-02-02T03:37:39.461Z,30.80
2023-02-02T03:40:07.374Z,34.88
2023-02-02T03:42:35.073Z,30.88
2023-02-02T03:45:02.897Z,40.95
2023-02-02T03:47:30.678Z,40.08
2023-02-02T03:49:58.563Z,37.38
2023-02-02T03:52:26.620Z,33.38
2023-02-02T03:54:54.232Z,38.50
2023-02-02T03:57:21.820Z,37.97
2023-02-02T03:59:49.349Z,30.83
2023-02-02T04:02:17.151Z,32.42
2023-02-02T04:04:45.345Z,34.97
2023-02-02T04:07:12.928Z,35.67
2023-02-02T04:09:40.974Z,32.13
2023-02-02T04:12:08.556Z,37.60
2023-02-02T04:14:37.230Z,38.95
2023-02-02T04:17:07.965Z,23.80
2023-02-02T04:19:36.546Z,34.28
2023-02-02T04:22:04.024Z,36.05
2023-02-02T04:24:31.700Z,31.95
2023-02-02T04:26:59.124Z,34.78
2023-02-02T04:29:26.548Z,37.95
2023-02-02T04:31:54.144Z,32.80
2023-02-02T04:34:21.838Z,37.05
2023-02-02T04:36:49.262Z,35.83
2023-02-02T04:39:16.958Z,40.63
2023-02-02T04:41:45.798Z,34.72
2023-02-02T04:44:16.813Z,35.38
2023-02-02T04:46:47.653Z,35.28
2023-02-02T04:49:15.367Z,40.22
2023-02-02T04:51:42.920Z,34.47
2023-02-02T04:54:11.072Z,37.40
2023-02-02T04:56:38.533Z,32.13
2023-02-02T04:59:05.939Z,39.53
2023-02-02T05:01:33.915Z,36.20
2023-02-02T05:04:01.408Z,34.40
2023-02-02T05:06:29.637Z,42.40
2023-02-02T05:08:57.260Z,26.63
2023-02-02T05:11:25.038Z,31.27
2023-02-02T05:13:53.452Z,30.00
2023-02-02T05:16:21.751Z,27.73
2023-02-02T05:18:50.646Z,32.85
2023-02-02T05:21:18.098Z,32.20
2023-02-02T05:23:46.303Z,35.28
2023-02-02T05:26:18.756Z,33.20
2023-02-02T05:28:46.437Z,28.58
2023-02-02T05:31:14.380Z,27.80
2023-02-02T05:33:41.918Z,26.60
2023-02-02T05:36:09.400Z,27.63
2023-02-02T05:38:37.198Z,34.60
2023-02-02T05:41:05.379Z,32.60
2023-02-02T05:43:33.883Z,28.50
2023-02-02T05:46:01.758Z,37.70
2023-02-02T05:48:29.319Z,42.22
2023-02-02T05:51:08.503Z,22.10
2023-02-02T05:53:36.011Z,26.58
2023-02-02T05:56:03.727Z,33.08
2023-02-02T05:58:31.356Z,36.67
2023-02-02T06:00:58.965Z,42.20
2023-02-02T06:03:26.664Z,25.55
2023-02-02T06:05:54.405Z,21.05
2023-02-02T06:08:26.055Z,34.25
2023-02-02T06:10:53.637Z,29.20
2023-02-02T06:13:21.954Z,36.20
2023-02-02T06:15:49.428Z,30.13
2023-02-02T06:18:16.896Z,23.00
2023-02-02T06:20:47.315Z,30.13
2023-02-02T06:23:20.578Z,19.08
2023-02-02T06:25:48.300Z,23.00
2023-02-02T06:28:16.476Z,30.98
2023-02-02T06:30:44.345Z,24.02
2023-02-02T06:33:12.270Z,30.63
2023-02-02T06:35:39.815Z,25.35
2023-02-02T06:38:07.376Z,27.15
2023-02-02T06:40:35.470Z,26.40
2023-02-02T06:43:04.253Z,27.63
2023-02-02T06:45:32.057Z,23.17
2023-02-02T06:48:08.586Z,24.52
2023-02-02T06:50:36.423Z,29.70
2023-02-02T06:53:03.904Z,24.80
2023-02-02T06:55:31.724Z,26.77
2023-02-02T06:57:59.759Z,31.73
2023-02-02T07:00:30.242Z,25.08
2023-02-02T07:05:27.967Z,29.13
2023-02-02T07:07:56.784Z,23.17
2023-02-02T07:11:14.737Z,19.73
2023-02-02T07:13:12.314Z,19.67
2023-02-02T07:15:40.618Z,25.13
2023-02-02T07:18:08.082Z,25.00
2023-02-02T07:20:35.704Z,20.20
2023-02-02T07:23:04.697Z,22.25
2023-02-02T07:25:32.196Z,27.58
2023-02-02T07:28:06.897Z,24.15
2023-02-02T07:30:48.373Z,28.55
2023-02-02T07:33:18.634Z,27.75
2023-02-02T07:35:47.380Z,32.75
2023-02-02T07:38:16.176Z,28.88
2023-02-02T07:40:46.229Z,24.23
2023-02-02T07:43:16.177Z,26.75
2023-02-02T07:45:45.354Z,28.63
2023-02-02T07:48:16.772Z,28.83
2023-02-02T07:50:46.937Z,25.60
2023-02-02T07:53:18.740Z,31.17
2023-02-02T07:55:46.335Z,25.77
2023-02-02T07:58:17.048Z,36.72
2023-02-02T08:00:45.915Z,28.80
2023-02-02T08:03:14.675Z,26.80
2023-02-02T08:05:42.656Z,29.17
2023-02-02T08:08:10.138Z,29.85
2023-02-02T08:10:37.768Z,29.70
2023-02-02T08:13:05.768Z,28.58
2023-02-02T08:15:33.691Z,35.33
2023-02-02T08:18:01.253Z,29.90
2023-02-02T08:20:28.782Z,37.60
2023-02-02T08:22:57.197Z,31.48
2023-02-02T08:25:25.427Z,30.63
2023-02-02T08:27:58.740Z,29.02
2023-02-02T08:30:26.661Z,37.97
2023-02-02T08:32:54.249Z,25.63
2023-02-02T08:35:22.305Z,39.65
2023-02-02T08:37:50.278Z,28.05
2023-02-02T08:40:18.315Z,32.60
2023-02-02T08:42:47.793Z,25.77
2023-02-02T08:46:13.248Z,36.63
2023-02-02T08:48:11.586Z,26.58
2023-02-02T08:50:43.879Z,35.35
2023-02-02T08:53:16.821Z,32.20
2023-02-02T08:55:45.204Z,30.88
2023-02-02T08:58:12.898Z,31.13
2023-02-02T09:00:40.609Z,30.42
2023-02-02T09:03:08.180Z,20.48
2023-02-02T09:05:38.582Z,33.17
2023-02-02T09:08:06.551Z,29.38
2023-02-02T09:10:36.450Z,27.17
2023-02-02T09:13:05.154Z,19.83
2023-02-02T09:15:33.741Z,22.85
2023-02-02T09:18:01.439Z,31.48
2023-02-02T09:20:28.956Z,24.67
2023-02-02T09:22:57.522Z,21.80
2023-02-02T09:25:28.404Z,26.60
2023-02-02T09:27:55.999Z,22.35
2023-02-02T09:30:23.928Z,22.20
2023-02-02T09:32:51.471Z,33.05
2023-02-02T09:35:19.219Z,26.08
2023-02-02T09:37:46.920Z,28.77
2023-02-02T09:40:19.589Z,27.40
2023-02-02T09:42:58.163Z,23.77
2023-02-02T09:45:34.436Z,22.70
2023-02-02T09:48:15.327Z,25.63
2023-02-02T09:50:45.148Z,31.73
2023-02-02T09:53:26.093Z,27.77
2023-02-02T09:55:54.807Z,29.50
2023-02-02T09:58:22.601Z,24.25
2023-02-02T10:01:00.914Z,29.42
2023-02-02T10:03:29.185Z,25.85
2023-02-02T10:06:02.229Z,25.33
2023-02-02T10:08:35.614Z,21.70
2023-02-02T10:11:09.498Z,32.67
2023-02-02T10:13:38.172Z,22.48
2023-02-02T10:16:14.327Z,23.92
2023-02-02T10:18:45.371Z,23.33
2023-02-02T10:21:27.959Z,32.33
2023-02-02T10:23:57.353Z,31.73
2023-02-02T10:26:32.563Z,31.70
2023-02-02T10:29:14.332Z,29.95
2023-02-02T10:31:49.236Z,24.30
2023-02-02T10:34:34.316Z,20.98
2023-02-02T10:37:01.802Z,22.70
2023-02-02T10:39:58.857Z,23.00
2023-02-02T10:42:38.562Z,24.08
2023-02-02T10:45:26.784Z,22.33
2023-02-02T10:47:54.444Z,24.38
2023-02-02T10:50:23.087Z,24.67
2023-02-02T10:52:54.095Z,28.00
2023-02-02T10:55:29.582Z,21.80
2023-02-02T10:58:09.533Z,17.48
2023-02-02T11:00:46.786Z,21.15
2023-02-02T11:03:19.809Z,20.58
2023-02-02T11:06:06.739Z,22.58
2023-02-02T11:08:40.404Z,14.23
2023-02-02T11:11:14.543Z,30.48
2023-02-02T11:13:48.846Z,22.17
2023-02-02T11:16:17.283Z,25.33
2023-02-02T11:18:46.299Z,17.10
2023-02-02T11:21:21.673Z,21.50
2023-02-02T11:23:57.047Z,23.63
2023-02-02T11:26:25.868Z,18.27
2023-02-02T11:28:59.932Z,13.23
2023-02-02T11:31:33.564Z,31.27
2023-02-02T11:34:11.962Z,27.38
2023-02-02T11:36:39.533Z,22.30
2023-02-02T11:39:18.057Z,31.75
2023-02-02T11:41:46.604Z,18.67
2023-02-02T11:44:21.665Z,25.65
2023-02-02T11:46:50.245Z,25.33
2023-02-02T11:49:19.536Z,27.35
2023-02-02T11:51:57.944Z,29.17
2023-02-02T11:54:33.498Z,35.65
2023-02-02T11:57:02.310Z,23.02
2023-02-02T11:59:35.814Z,27.75
2023-02-02T12:02:22.428Z,24.10
2023-02-02T12:04:52.488Z,26.08
2023-02-02T12:07:20.556Z,25.92
2023-02-02T12:09:50.494Z,29.05
2023-02-02T12:12:28.945Z,26.27
2023-02-02T12:14:59.676Z,34.83
2023-02-02T12:17:39.064Z,30.98
2023-02-02T12:20:10.072Z,20.95
2023-02-02T12:22:46.638Z,23.83
2023-02-02T12:25:27.219Z,25.10
2023-02-02T12:27:55.104Z,34.65
2023-02-02T12:30:36.860Z,29.08
2023-02-02T12:33:16.216Z,20.55
2023-02-02T12:35:47.163Z,32.83
2023-02-02T12:38:15.234Z,24.77
2023-02-02T12:41:01.675Z,24.10
2023-02-02T12:43:29.214Z,25.02
2023-02-02T12:46:02.923Z,28.88
2023-02-02T12:48:34.266Z,20.13
2023-02-02T12:51:22.264Z,26.15
2023-02-02T12:54:33.772Z,33.13
2023-02-02T12:57:11.194Z,26.00
2023-02-02T12:59:48.429Z,21.38
2023-02-02T13:02:16.318Z,26.50
2023-02-02T13:04:44.091Z,21.35
2023-02-02T13:07:27.256Z,22.73
2023-02-02T13:10:01.051Z,22.13
2023-02-02T13:12:29.470Z,21.15
2023-02-02T13:14:59.950Z,20.08
2023-02-02T13:19:56.689Z,23.25
2023-02-02T13:22:32.790Z,24.40
2023-02-02T13:25:01.947Z,14.80
2023-02-02T13:27:31.377Z,31.60
2023-02-02T13:30:05.216Z,28.42
2023-02-02T13:32:37.604Z,37.13
2023-02-02T13:35:05.494Z,30.80
2023-02-02T13:37:42.325Z,22.85
2023-02-02T13:40:27.885Z,28.83
2023-02-02T13:42:58.196Z,26.02
2023-02-02T13:45:26.078Z,26.77
2023-02-02T13:47:58.962Z,30.60
2023-02-02T13:50:30.240Z,24.15
2023-02-02T13:53:17.284Z,26.60
2023-02-02T13:55:46.101Z,23.77
2023-02-02T13:58:28.990Z,31.70
2023-02-02T14:01:00.625Z,27.42
2023-02-02T14:03:38.931Z,22.33
2023-02-02T14:06:20.254Z,23.55
2023-02-02T14:08:48.278Z,22.17
2023-02-02T14:11:20.488Z,31.10
2023-02-02T14:14:08.411Z,32.17
2023-02-02T14:16:35.906Z,33.50
2023-02-02T14:19:17.864Z,40.20
2023-02-02T14:21:49.038Z,19.85
2023-02-02T14:24:26.985Z,18.80
2023-02-02T14:26:57.527Z,27.42
2023-02-02T14:29:32.520Z,27.45
2023-02-02T14:32:03.395Z,21.30
2023-02-02T14:34:39.666Z,23.92
2023-02-02T14:37:34.771Z,28.88
2023-02-02T14:40:12.745Z,25.20
2023-02-02T14:43:07.595Z,16.00
2023-02-02T14:45:42.585Z,23.77
2023-02-02T14:48:24.207Z,32.53
2023-02-02T14:50:58.994Z,22.42
2023-02-02T14:53:29.714Z,21.88
2023-02-02T14:56:09.176Z,25.80
2023-02-02T14:58:39.508Z,16.30
2023-02-02T15:01:11.043Z,22.05
2023-02-02T15:03:48.183Z,19.50
2023-02-02T15:06:31.186Z,26.90
2023-02-02T15:09:17.714Z,22.08
2023-02-02T15:12:09.680Z,18.35
2023-02-02T15:14:39.764Z,20.80
2023-02-02T15:17:07.242Z,20.73
2023-02-02T15:19:42.754Z,17.00
2023-02-02T15:22:19.421Z,16.02
2023-02-02T15:24:47.462Z,18.52
2023-02-02T15:27:19.661Z,18.50
2023-02-02T15:29:50.298Z,18.75
2023-02-02T15:32:20.605Z,14.20
2023-02-02T15:34:50.156Z,11.63
2023-02-02T15:37:21.266Z,10.27
2023-02-02T15:39:51.991Z,20.02
2023-02-02T15:42:41.302Z,14.90
2023-02-02T15:45:33.936Z,11.70
2023-02-02T15:48:06.144Z,18.55
2023-02-02T15:50:33.945Z,13.75
2023-02-02T15:53:02.397Z,17.35
2023-02-02T15:55:32.160Z,24.33
2023-02-02T15:57:59.955Z,27.60
2023-02-02T16:00:30.755Z,24.42
2023-02-02T16:02:59.896Z,17.52
2023-02-02T16:05:30.375Z,23.52
2023-02-02T16:10:46.886Z,30.95
2023-02-02T16:13:25.673Z,27.70
2023-02-02T16:16:00.833Z,30.45
2023-02-02T16:18:48.631Z,33.65
2023-02-02T16:21:24.200Z,25.17
2023-02-02T16:23:52.091Z,23.30
2023-02-02T16:26:21.103Z,25.48
2023-02-02T16:28:48.981Z,25.48
2023-02-02T16:31:16.785Z,28.00
2023-02-02T16:33:46.224Z,30.08
2023-02-02T16:36:26.013Z,23.33
2023-02-02T16:38:55.639Z,27.67
2023-02-02T16:41:51.042Z,27.00
2023-02-02T16:44:37.035Z,28.30
2023-02-02T16:47:05.746Z,32.08
2023-02-02T16:49:33.347Z,26.40
2023-02-02T16:52:11.494Z,28.52
2023-02-02T16:54:40.336Z,32.05
2023-02-02T16:57:08.034Z,32.20
2023-02-02T16:59:38.377Z,28.83
2023-02-02T17:02:17.533Z,35.65
2023-02-02T17:04:49.021Z,37.53
2023-02-02T17:07:17.503Z,48.20
2023-02-02T17:09:46.252Z,40.10
2023-02-02T17:12:32.195Z,44.55
2023-02-02T17:15:05.789Z,43.80
2023-02-02T17:17:34.780Z,37.95
2023-02-02T17:20:02.566Z,47.65
2023-02-02T17:22:30.937Z,35.22
2023-02-02T17:24:59.638Z,42.72
2023-02-02T17:27:33.990Z,48.95
2023-02-02T17:30:02.906Z,40.95
2023-02-02T17:32:30.540Z,46.15
2023-02-02T17:34:58.559Z,36.97
2023-02-02T17:37:26.861Z,40.50
2023-02-02T17:39:59.538Z,40.65
2023-02-02T17:42:28.261Z,35.38
2023-02-02T17:44:57.036Z,32.60
2023-02-02T17:47:25.167Z,44.58
2023-02-02T17:49:53.639Z,24.98
2023-02-02T17:52:21.203Z,33.58
2023-02-02T17:54:48.761Z,46.13
2023-02-02T17:57:16.322Z,30.30
2023-02-02T17:59:44.005Z,33.70
2023-02-02T18:02:14.057Z,42.70
2023-02-02T18:04:42.739Z,39.22
2023-02-02T18:07:11.724Z,37.17
2023-02-02T18:09:39.327Z,30.98
2023-02-02T18:12:07.644Z,31.27
2023-02-02T18:14:35.860Z,28.92
2023-02-02T18:17:04.369Z,28.92
2023-02-02T18:19:31.966Z,32.42
2023-02-02T18:21:59.476Z,31.58
2023-02-02T18:24:26.973Z,32.58
2023-02-02T18:26:54.915Z,30.45
2023-02-02T18:29:23.022Z,28.17
2023-02-02T18:31:50.620Z,25.95
2023-02-02T18:34:18.324Z,24.05
2023-02-02T18:36:46.342Z,28.05
2023-02-02T18:39:14.343Z,25.73
2023-02-02T18:41:42.809Z,27.67
2023-02-02T18:44:10.313Z,24.85
2023-02-02T18:46:38.630Z,28.45
2023-02-02T18:49:06.184Z,23.45
2023-02-02T18:51:35.682Z,29.48
2023-02-02T18:54:05.112Z,27.88
2023-02-02T18:56:32.858Z,18.80
2023-02-02T18:59:01.230Z,26.48
2023-02-02T19:01:29.231Z,21.95
2023-02-02T19:03:57.660Z,27.88
2023-02-02T19:06:44.999Z,21.75
2023-02-02T19:09:17.635Z,23.00
2023-02-02T19:11:49.185Z,27.65
2023-02-02T19:14:18.783Z,26.00
2023-02-02T19:16:48.168Z,28.95
2023-02-02T19:19:27.831Z,19.80
2023-02-02T19:21:59.156Z,22.88
2023-02-02T19:24:27.257Z,19.73
2023-02-02T19:26:55.019Z,24.27
2023-02-02T19:29:29.199Z,20.65
2023-02-02T19:32:02.986Z,25.67
2023-02-02T19:34:31.085Z,21.67
2023-02-02T19:36:59.098Z,32.25
2023-02-02T19:39:30.877Z,25.25
2023-02-02T19:42:00.031Z,32.05
2023-02-02T19:44:32.407Z,17.67
2023-02-02T19:47:00.628Z,15.40
2023-02-02T19:49:31.818Z,20.45
2023-02-02T19:51:59.822Z,21.63
2023-02-02T19:54:30.607Z,17.70
2023-02-02T19:56:59.738Z,27.50
2023-02-02T19:59:31.044Z,15.63
2023-02-02T20:02:00.628Z,17.08
2023-02-02T20:04:28.680Z,21.03
2023-02-02T20:06:59.856Z,12.63
2023-02-02T20:09:30.936Z,18.83
2023-02-02T20:11:59.590Z,16.98
2023-02-02T20:14:29.638Z,18.52
2023-02-02T20:17:07.672Z,18.97
2023-02-02T20:19:37.091Z,13.00
2023-02-02T20:22:18.677Z,14.10
2023-02-02T20:24:49.098Z,16.38
2023-02-02T20:27:27.152Z,17.10
2023-02-02T20:29:55.651Z,11.75
2023-02-02T20:32:26.631Z,15.00
2023-02-02T20:34:58.705Z,22.35
2023-02-02T20:37:30.928Z,13.32
2023-02-02T20:40:03.146Z,19.05
2023-02-02T20:42:31.335Z,12.38
2023-02-02T20:44:59.311Z,14.00
2023-02-02T20:47:29.938Z,14.98
2023-02-02T20:50:00.571Z,13.05
2023-02-02T20:52:31.136Z,17.45
2023-02-02T20:57:28.596Z,14.30
2023-02-02T20:59:57.857Z,15.10
2023-02-02T21:02:26.787Z,14.65
2023-02-02T21:04:55.267Z,14.60
2023-02-02T21:07:23.227Z,12.10
2023-02-02T21:09:52.304Z,15.10
2023-02-02T21:12:24.695Z,19.65
2023-02-02T21:14:54.082Z,12.65
2023-02-02T21:17:22.877Z,14.10
2023-02-02T21:19:50.857Z,14.13
2023-02-02T21:22:18.493Z,18.85
2023-02-02T21:24:46.301Z,20.25
2023-02-02T21:27:14.158Z,16.50
2023-02-02T21:29:42.199Z,17.95
2023-02-02T21:32:11.395Z,15.20
2023-02-02T21:34:38.998Z,16.85
2023-02-02T21:37:12.802Z,11.30
2023-02-02T21:39:51.785Z,14.60
2023-02-02T21:42:21.118Z,13.75
2023-02-02T21:44:53.738Z,17.95
2023-02-02T21:47:35.387Z,12.88
2023-02-02T21:50:12.061Z,19.35
2023-02-02T21:52:41.066Z,25.10
2023-02-02T21:55:22.442Z,27.90
2023-02-02T21:57:50.248Z,19.55
2023-02-02T22:00:24.517Z,24.13
2023-02-02T22:02:54.880Z,15.73
2023-02-02T22:05:22.518Z,23.52
2023-02-02T22:07:53.552Z,24.30
2023-02-02T22:10:38.147Z,23.45
2023-02-02T22:13:15.279Z,20.92
2023-02-02T22:15:46.148Z,19.52
2023-02-02T22:18:33.494Z,16.17
2023-02-02T22:21:01.426Z,33.42
2023-02-02T22:23:39.755Z,28.88
2023-02-02T22:26:18.757Z,19.38
2023-02-02T22:28:46.739Z,23.52
2023-02-02T22:31:15.544Z,24.27
2023-02-02T22:33:44.404Z,29.20
2023-02-02T22:36:12.011Z,28.63
2023-02-02T22:38:39.990Z,32.08
2023-02-02T22:41:09.630Z,23.80
2023-02-02T22:43:37.235Z,23.40
2023-02-02T22:46:04.873Z,27.85
2023-02-02T22:48:35.787Z,26.88
2023-02-02T22:51:03.291Z,26.45
2023-02-02T22:53:32.563Z,24.38
2023-02-02T22:56:00.052Z,31.65
2023-02-02T22:58:28.253Z,26.20
2023-02-02T23:00:56.045Z,23.92
2023-02-02T23:03:23.881Z,29.05
2023-02-02T23:05:51.488Z,32.03
2023-02-02T23:08:19.005Z,23.13
2023-02-02T23:10:49.565Z,22.15
2023-02-02T23:13:18.145Z,21.25
2023-02-02T23:15:46.617Z,18.30
2023-02-02T23:18:15.395Z,23.77
2023-02-02T23:20:45.258Z,23.83
2023-02-02T23:23:13.823Z,28.90
2023-02-02T23:25:41.972Z,21.85
2023-02-02T23:28:10.644Z,22.67
2023-02-02T23:30:38.200Z,25.50
2023-02-02T23:33:06.065Z,23.55
2023-02-02T23:35:33.929Z,22.15
2023-02-02T23:38:01.427Z,22.55
2023-02-02T23:40:29.262Z,25.48
2023-02-02T23:42:57.100Z,17.50
2023-02-02T23:45:24.641Z,26.08
2023-02-02T23:47:52.275Z,24.08
2023-02-02T23:50:19.987Z,21.83
2023-02-02T23:52:47.398Z,17.65
2023-02-02T23:55:16.065Z,25.40
2023-02-02T23:57:44.111Z,22.05
